createdAt,value
2023-02-11T00:12:26.275Z,6
2023-02-11T00:22:28.614Z,6
2023-02-11T00:32:30.839Z,6.1
2023-02-11T00:42:32.983Z,6.1
2023-02-11T00:52:34.883Z,6.1
2023-02-11T01:02:37.511Z,6.1
2023-02-11T01:12:39.845Z,6.1
2023-02-11T01:22:41.580Z,6.2
2023-02-11T01:32:43.975Z,6.2
2023-02-11T01:42:46.472Z,6.3
2023-02-11T01:52:48.825Z,6.2
2023-02-11T02:02:50.618Z,6.2
2023-02-11T02:12:52.757Z,6.2
2023-02-11T02:22:55.254Z,6.2
2023-02-11T02:32:57.419Z,6.2
2023-02-11T02:42:59.189Z,6.2
2023-02-11T03:03:12.674Z,6.1
2023-02-11T03:13:14.921Z,6.1
2023-02-11T03:23:17.093Z,6
2023-02-11T03:33:19.655Z,6
2023-02-11T03:43:21.406Z,5.9
2023-02-11T03:53:23.989Z,5.9
2023-02-11T04:03:26.036Z,5.8
2023-02-11T04:13:28.463Z,5.8
2023-02-11T04:23:30.700Z,5.7
2023-02-11T04:33:33.183Z,5.7
2023-02-11T04:43:35.878Z,5.6
2023-02-11T04:53:37.850Z,5.6
2023-02-11T05:03:39.694Z,5.5
2023-02-11T05:23:43.865Z,5.4
2023-02-11T05:33:45.768Z,5.4
2023-02-11T05:43:48.348Z,5.3
2023-02-11T05:53:50.404Z,5.3
2023-02-11T06:03:52.225Z,5.3
2023-02-11T06:13:54.566Z,5.4
2023-02-11T06:23:56.616Z,5.4
2023-02-11T06:33:59.320Z,5.3
2023-02-11T06:44:01.791Z,5.4
2023-02-11T06:54:04.070Z,5.4
2023-02-11T07:04:06.510Z,5.4
2023-02-11T07:14:09.117Z,5.4
2023-02-11T07:24:11.509Z,5.4
2023-02-11T07:34:13.755Z,5.4
2023-02-11T07:44:16.352Z,5.5
2023-02-11T07:54:18.794Z,5.5
2023-02-11T08:14:22.826Z,5.6
2023-02-11T08:24:25.236Z,5.7
2023-02-11T08:34:27.165Z,5.7
2023-02-11T08:44:29.645Z,5.8
2023-02-11T08:54:31.353Z,5.8
2023-02-11T09:04:33.786Z,5.9
2023-02-11T09:14:36.001Z,6
2023-02-11T09:24:38.173Z,6.2
2023-02-11T09:34:40.664Z,6.3
2023-02-11T09:44:43.063Z,6.4
2023-02-11T09:54:44.740Z,6.4
2023-02-11T10:04:47.245Z,6.4
2023-02-11T10:14:49.249Z,6.5
2023-02-11T10:24:51.033Z,6.6
2023-02-11T10:34:52.899Z,6.6
2023-02-11T10:44:54.942Z,6.6
2023-02-11T11:04:59.574Z,6.8
2023-02-11T11:15:01.314Z,6.9
2023-02-11T11:25:03.637Z,7
2023-02-11T11:35:06.049Z,7.1
2023-02-11T11:45:08.722Z,7.3
2023-02-11T11:55:10.562Z,7.2
2023-02-11T12:05:12.353Z,7.3
2023-02-11T12:25:17.100Z,7.7
2023-02-11T12:35:19.589Z,7.7
2023-02-11T12:45:21.412Z,7.6
2023-02-11T13:05:25.871Z,7.7
2023-02-11T13:15:28.142Z,7.7
2023-02-11T13:25:30.108Z,7.8
2023-02-11T13:35:32.665Z,7.9
2023-02-11T13:55:37.669Z,8.4
2023-02-11T14:05:39.775Z,8.5
2023-02-11T14:15:42.059Z,8.5
2023-02-11T14:25:44.423Z,8.5
2023-02-11T14:35:46.179Z,8.5
2023-02-11T14:45:48.022Z,8.5
2023-02-11T14:55:50.372Z,8.6
2023-02-11T15:05:52.527Z,8.6
2023-02-11T15:15:54.527Z,8.6
2023-02-11T15:25:56.964Z,8.6
2023-02-11T15:35:59.182Z,8.6
2023-02-11T15:56:03.878Z,8.5
2023-02-11T16:16:08.528Z,8.4
2023-02-11T16:26:10.729Z,8.4
2023-02-11T16:36:12.741Z,8.4
2023-02-11T16:46:15.050Z,8.4
2023-02-11T17:06:18.917Z,8.4
2023-02-11T17:16:21.329Z,8.3
2023-02-11T17:26:23.914Z,8.2
2023-02-11T17:36:26.101Z,8.2
2023-02-11T17:46:27.932Z,8.1
2023-02-11T17:56:30.333Z,8.1
2023-02-11T18:06:32.585Z,8
2023-02-11T18:16:34.487Z,8
2023-02-11T18:26:36.741Z,7.9
2023-02-11T18:36:39.379Z,7.8
2023-02-11T18:46:41.410Z,7.8
2023-02-11T18:56:43.249Z,7.8
2023-02-11T19:06:44.974Z,7.7
2023-02-11T19:16:46.792Z,7.7
2023-02-11T19:26:48.844Z,7.7
2023-02-11T19:36:51.479Z,7.7
2023-02-11T19:46:53.651Z,7.7
2023-02-11T19:56:55.474Z,7.7
2023-02-11T20:06:57.920Z,7.7
2023-02-11T20:17:00.324Z,7.7
2023-02-11T20:27:02.299Z,7.7
2023-02-11T20:37:04.185Z,7.6
2023-02-11T20:47:06.351Z,7.6
2023-02-11T20:57:08.236Z,7.6
2023-02-11T21:07:09.999Z,7.7
2023-02-11T21:17:12.456Z,7.7
2023-02-11T21:27:14.791Z,7.7
2023-02-11T21:37:16.682Z,7.7
2023-02-11T21:47:19.255Z,7.7
2023-02-11T21:57:21.272Z,7.6
2023-02-11T22:07:23.909Z,7.6
2023-02-11T22:17:25.848Z,7.6
2023-02-11T22:27:28.021Z,7.5
2023-02-11T22:37:29.816Z,7.5
2023-02-11T22:47:31.873Z,7.5
2023-02-11T22:57:33.655Z,7.5
2023-02-11T23:07:35.564Z,7.4
2023-02-11T23:17:37.475Z,7.4
2023-02-11T23:27:39.291Z,7.3
2023-02-11T23:37:41.633Z,7.3
2023-02-11T23:47:43.844Z,7.3
2023-02-11T23:57:45.646Z,7.3
